Time;durP1;ratioP1;P1;durP2;ratioP2;P2;SDS_P1;SDS_P2;PMS_P1;PMS_P2;Temp;Humidity;BMP_temperature;BMP_pressure;BME280_temperature;BME280_humidity;BME280_pressure;Samples;Min_cycle;Max_cycle;Signal;HPM_P1;HPM_P2
2021/06/02 00:01:38;;;;;;;0.10;0.10;;;;;;;10.10;71.80;101287.88;5018982;28;20083;-88
2021/06/02 00:04:14;;;;;;;0.10;0.10;;;;;;;10.12;70.94;101282.19;5021470;28;20045;-88
2021/06/02 00:06:49;;;;;;;0.52;0.20;;;;;;;10.17;71.71;101283.03;5019349;28;20401;-88
2021/06/02 00:09:22;;;;;;;0.10;0.10;;;;;;;10.12;71.91;101287.63;5016660;28;20534;-88
2021/06/02 00:11:51;;;;;;;0.10;0.10;;;;;;;10.05;72.30;101285.13;5023657;28;20060;-88
2021/06/02 00:15:15;;;;;;;0.20;0.20;;;;;;;9.97;72.98;101286.44;5019244;28;20058;-88
2021/06/02 00:17:51;;;;;;;0.17;0.17;;;;;;;10.07;72.17;101287.56;5024285;28;20050;-91
2021/06/02 00:20:55;;;;;;;0.20;0.20;;;;;;;10.00;73.18;101287.84;5018555;28;20714;-87
2021/06/02 00:23:30;;;;;;;0.10;0.10;;;;;;;9.70;72.92;101249.25;5010736;28;20050;-87
2021/06/02 00:26:06;;;;;;;0.10;0.10;;;;;;;9.85;74.67;101289.34;5018982;28;20430;-87
2021/06/02 00:28:39;;;;;;;0.20;0.20;;;;;;;9.82;73.96;101284.44;5014732;28;20053;-88
2021/06/02 00:31:45;;;;;;;0.20;0.20;;;;;;;9.80;75.04;101305.59;5012986;28;20052;-88
2021/06/02 00:34:19;;;;;;;0.10;0.10;;;;;;;9.77;74.79;101278.94;5018696;28;20663;-89
2021/06/02 00:37:18;;;;;;;0.10;0.10;;;;;;;9.92;73.84;101291.03;5027773;28;20041;-88
2021/06/02 00:39:53;;;;;;;0.15;0.15;;;;;;;9.94;74.64;101289.66;5021452;28;20056;-87
2021/06/02 00:42:30;;;;;;;0.10;0.10;;;;;;;10.04;74.29;101294.38;5023866;28;20521;-87
2021/06/02 00:45:03;;;;;;;0.20;0.20;;;;;;;9.98;74.60;101276.38;5029856;28;20548;-89
2021/06/02 00:47:37;;;;;;;0.10;0.10;;;;;;;10.09;73.51;101288.97;5017739;28;20046;-88
2021/06/02 00:50:24;;;;;;;0.15;0.15;;;;;;;10.14;73.48;101286.28;5034693;28;20046;-89
2021/06/02 00:52:57;;;;;;;0.30;0.20;;;;;;;10.24;74.53;101295.59;5015684;28;20058;-88
2021/06/02 00:55:40;;;;;;;0.10;0.10;;;;;;;10.21;74.84;101292.31;5018209;28;20076;-88
2021/06/02 00:58:19;;;;;;;0.20;0.20;;;;;;;10.26;74.19;101293.41;5014785;28;20042;-87
2021/06/02 01:00:56;;;;;;;0.15;0.15;;;;;;;10.27;74.22;101298.59;5027888;28;20491;-87
2021/06/02 01:03:30;;;;;;;0.10;0.10;;;;;;;10.26;74.87;101291.53;5016671;28;20046;-88
2021/06/02 01:06:05;;;;;;;0.20;0.20;;;;;;;10.23;74.19;101275.72;5024582;28;20054;-89
2021/06/02 01:08:41;;;;;;;0.10;0.10;;;;;;;10.23;74.69;101286.59;5023485;28;20045;-87
2021/06/02 01:11:17;;;;;;;0.10;0.10;;;;;;;10.36;73.57;101291.63;5031546;28;20391;-87
2021/06/02 01:13:49;;;;;;;0.20;0.20;;;;;;;10.16;74.74;101273.25;5026409;28;20076;-88
2021/06/02 01:16:26;;;;;;;0.10;0.10;;;;;;;10.34;75.01;101296.53;5030295;28;20056;-88
2021/06/02 01:19:01;;;;;;;0.17;0.17;;;;;;;10.33;74.71;101294.84;5031783;28;20056;-87
2021/06/02 01:21:34;;;;;;;0.20;0.20;;;;;;;10.15;74.83;101271.59;5027569;28;20081;-88
2021/06/02 01:24:08;;;;;;;0.20;0.20;;;;;;;10.30;74.54;101294.53;5026225;28;20057;-88
2021/06/02 01:27:20;;;;;;;0.20;0.20;;;;;;;10.29;73.51;101293.72;5022120;28;20418;-88
2021/06/02 01:29:53;;;;;;;0.10;0.10;;;;;;;10.18;72.46;101281.97;5015915;28;20061;-89
2021/06/02 01:32:45;;;;;;;0.20;0.20;;;;;;;10.33;73.33;101296.72;5031345;28;20505;-88
2021/06/02 01:35:47;;;;;;;0.98;0.20;;;;;;;10.59;71.46;101289.53;5021450;28;20053;-88
2021/06/02 01:42:25;;;;;;;0.10;0.10;;;;;;;10.36;72.90;101272.56;5025928;28;20041;-87
2021/06/02 01:49:42;;;;;;;0.20;0.20;;;;;;;10.58;71.68;101292.53;5033632;28;20037;-89
2021/06/02 01:52:47;;;;;;;0.20;0.20;;;;;;;10.57;71.27;101299.91;5022097;28;20057;-89
2021/06/02 01:55:59;;;;;;;0.13;0.13;;;;;;;10.55;72.33;101300.16;5022543;28;20053;-89
2021/06/02 01:59:14;;;;;;;0.20;0.20;;;;;;;10.74;70.80;101299.69;5029298;28;20057;-89
2021/06/02 02:02:04;;;;;;;0.20;0.20;;;;;;;10.58;72.44;101289.81;5030151;28;20132;-89
2021/06/02 02:05:03;;;;;;;0.20;0.20;;;;;;;10.67;70.23;101304.56;5017254;28;20148;-89
2021/06/02 02:08:10;;;;;;;0.40;0.30;;;;;;;10.84;70.36;101299.75;5024585;28;20405;-89
2021/06/02 02:10:48;;;;;;;0.28;0.17;;;;;;;10.77;69.32;101295.63;5015346;28;20045;-89
2021/06/02 02:14:06;;;;;;;0.20;0.20;;;;;;;10.64;72.97;101295.03;5025730;28;20067;-89
2021/06/02 02:16:48;;;;;;;0.20;0.20;;;;;;;10.71;69.67;101298.31;5017263;28;20058;-90
2021/06/02 02:22:50;;;;;;;0.10;0.10;;;;;;;10.74;68.96;101294.25;5016513;28;20054;-89
2021/06/02 02:25:23;;;;;;;0.20;0.20;;;;;;;10.72;70.80;101297.25;5023732;28;20053;-88
2021/06/02 02:28:08;;;;;;;0.20;0.20;;;;;;;10.60;70.92;101291.19;5028433;28;20057;-87
2021/06/02 02:35:07;;;;;;;0.10;0.10;;;;;;;10.65;70.72;101302.13;5028253;28;20529;-88
2021/06/02 02:38:30;;;;;;;0.17;0.17;;;;;;;10.63;71.99;101306.97;5021562;28;20417;-88
2021/06/02 02:41:21;;;;;;;0.20;0.20;;;;;;;10.59;72.50;101303.16;5017294;28;20042;-90
2021/06/02 02:44:01;;;;;;;0.20;0.20;;;;;;;10.71;69.59;101295.59;5020168;28;20046;-89
2021/06/02 02:51:12;;;;;;;0.20;0.20;;;;;;;10.52;71.01;101299.84;5032360;28;20036;-88
2021/06/02 02:53:52;;;;;;;0.20;0.20;;;;;;;10.60;72.07;101307.53;5023963;28;20049;-88
2021/06/02 02:56:35;;;;;;;0.20;0.20;;;;;;;10.61;70.59;101316.53;5013799;28;20301;-88
2021/06/02 02:59:18;;;;;;;0.20;0.20;;;;;;;10.59;70.91;101319.50;5025363;28;20048;-88
2021/06/02 03:01:57;;;;;;;0.10;0.10;;;;;;;10.50;72.13;101316.47;5026136;28;20057;-87
2021/06/02 03:04:27;;;;;;;0.20;0.20;;;;;;;10.51;72.37;101318.09;5015193;28;20057;-87
2021/06/02 03:06:58;;;;;;;0.20;0.20;;;;;;;10.46;72.23;101309.09;5027955;28;20057;-87
2021/06/02 03:09:36;;;;;;;0.20;0.20;;;;;;;10.35;73.31;101297.31;5020395;28;20521;-88
2021/06/02 03:12:22;;;;;;;0.15;0.15;;;;;;;10.48;72.93;101313.19;5018771;28;20053;-89
2021/06/02 03:14:59;;;;;;;0.10;0.10;;;;;;;10.37;74.34;101312.31;5028320;28;20052;-86
2021/06/02 03:17:39;;;;;;;0.20;0.20;;;;;;;10.42;74.13;101325.13;5023548;28;20045;-89
2021/06/02 03:20:18;;;;;;;0.20;0.20;;;;;;;10.42;74.38;101318.88;5020152;28;20042;-88
2021/06/02 03:23:14;;;;;;;0.10;0.10;;;;;;;10.41;74.24;101318.03;5015884;28;20050;-88
2021/06/02 03:25:46;;;;;;;0.10;0.10;;;;;;;10.30;74.40;101316.28;5020209;28;20125;-88
2021/06/02 03:32:01;;;;;;;0.20;0.20;;;;;;;10.31;75.27;101323.38;5014445;28;20050;-88
2021/06/02 03:34:47;;;;;;;0.20;0.20;;;;;;;10.21;75.91;101326.84;5012982;28;20073;-87
2021/06/02 03:37:29;;;;;;;0.20;0.20;;;;;;;10.21;75.73;101322.22;5013768;28;20533;-89
2021/06/02 03:40:28;;;;;;;0.20;0.20;;;;;;;10.12;76.07;101314.81;5022590;28;20065;-88
2021/06/02 03:43:08;;;;;;;0.20;0.20;;;;;;;10.18;76.56;101330.09;5016866;28;20050;-89
2021/06/02 03:45:49;;;;;;;0.20;0.20;;;;;;;10.10;76.05;101319.72;5012198;28;20207;-88
2021/06/02 03:48:31;;;;;;;0.20;0.20;;;;;;;10.04;75.53;101324.31;5018184;28;20052;-87
2021/06/02 03:51:27;;;;;;;0.20;0.20;;;;;;;10.09;76.64;101334.38;5023401;28;20433;-88
2021/06/02 03:54:26;;;;;;;0.20;0.20;;;;;;;10.15;76.18;101330.59;5012286;28;20050;-87
2021/06/02 03:57:28;;;;;;;0.40;0.20;;;;;;;10.14;76.53;101337.97;5021741;28;20057;-89
2021/06/02 04:00:13;;;;;;;0.20;0.20;;;;;;;9.97;76.98;101307.34;5024371;28;20057;-87
2021/06/02 04:02:52;;;;;;;0.22;0.22;;;;;;;10.07;76.86;101328.38;5012334;28;20053;-87
2021/06/02 04:05:41;;;;;;;0.13;0.13;;;;;;;10.16;76.83;101340.41;5016579;28;20046;-88
2021/06/02 04:08:23;;;;;;;0.20;0.20;;;;;;;10.09;78.65;101340.63;5027256;28;20513;-88
2021/06/02 04:11:11;;;;;;;0.30;0.20;;;;;;;9.98;77.70;101322.59;5024978;28;20038;-88
2021/06/02 04:13:55;;;;;;;0.20;0.20;;;;;;;10.11;78.50;101341.22;5016274;28;20041;-88
2021/06/02 04:16:31;;;;;;;0.15;0.15;;;;;;;10.18;77.59;101346.44;5025262;28;20045;-89
2021/06/02 04:19:05;;;;;;;0.20;0.20;;;;;;;10.16;78.89;101354.00;5017011;28;20046;-88
2021/06/02 04:21:37;;;;;;;0.30;0.20;;;;;;;10.06;79.14;101333.00;5027354;28;20477;-88
2021/06/02 04:24:12;;;;;;;0.10;0.10;;;;;;;10.09;78.96;101335.19;5019638;28;20046;-89
2021/06/02 04:26:46;;;;;;;0.20;0.20;;;;;;;10.18;79.28;101332.84;5021852;28;20046;-88
2021/06/02 04:29:25;;;;;;;0.20;0.20;;;;;;;10.19;79.04;101342.59;5023691;28;20041;-89
2021/06/02 04:31:55;;;;;;;0.10;0.10;;;;;;;10.23;78.55;101340.19;5018797;28;20033;-88
2021/06/02 04:34:29;;;;;;;0.20;0.20;;;;;;;10.10;78.98;101341.47;5018824;28;20038;-89
2021/06/02 04:37:05;;;;;;;0.20;0.20;;;;;;;10.12;79.54;101350.19;5022757;28;20030;-88
2021/06/02 04:44:10;;;;;;;;;;;;;;;10.13;79.71;101340.94;5029686;28;20056;-90
2021/06/02 04:47:43;;;;;;;0.20;0.20;;;;;;;10.20;78.81;101350.53;5028935;28;19929;-89
2021/06/02 04:50:27;;;;;;;0.45;0.30;;;;;;;10.08;79.13;101347.19;5018620;28;20050;-89
2021/06/02 04:53:54;;;;;;;0.20;0.20;;;;;;;10.13;79.80;101357.25;5018496;28;20544;-88
2021/06/02 04:57:15;;;;;;;0.20;0.20;;;;;;;10.13;79.46;101338.22;5022066;28;20441;-89
2021/06/02 05:00:04;;;;;;;0.20;0.20;;;;;;;10.25;79.40;101343.47;5028181;28;20816;-90
2021/06/02 05:03:11;;;;;;;0.20;0.20;;;;;;;10.49;79.24;101354.81;5031260;28;20041;-89
2021/06/02 05:09:44;;;;;;;0.30;0.30;;;;;;;12.90;70.74;101359.00;5022228;28;20042;-89
2021/06/02 05:13:22;;;;;;;0.30;0.30;;;;;;;14.37;66.07;101354.75;4985349;28;20644;-89
2021/06/02 05:16:42;;;;;;;0.20;0.20;;;;;;;13.21;67.97;101358.84;5018696;28;20045;-89
2021/06/02 05:19:59;;;;;;;0.20;0.20;;;;;;;12.41;70.49;101366.78;5024592;28;20042;-89
2021/06/02 05:23:35;;;;;;;0.20;0.20;;;;;;;12.33;72.29;101372.78;5027774;28;20410;-88
2021/06/02 05:26:57;;;;;;;0.30;0.30;;;;;;;12.29;73.62;101371.69;4965158;28;20053;-88
2021/06/02 05:30:03;;;;;;;0.20;0.20;;;;;;;12.19;72.77;101368.97;5017755;28;20053;-91
2021/06/02 05:33:14;;;;;;;0.30;0.30;;;;;;;11.82;74.48;101376.31;5022174;28;20048;-89
2021/06/02 05:40:30;;;;;;;0.20;0.20;;;;;;;11.91;74.24;101382.03;5026709;28;20041;-88
2021/06/02 05:43:42;;;;;;;0.25;0.20;;;;;;;11.86;74.52;101374.66;5018670;28;20049;-89
2021/06/02 05:46:51;;;;;;;0.20;0.20;;;;;;;11.82;75.93;101379.03;5018726;28;20064;-89
2021/06/02 05:50:08;;;;;;;0.20;0.20;;;;;;;11.74;76.48;101377.63;5019908;28;20410;-89
2021/06/02 05:53:31;;;;;;;0.20;0.20;;;;;;;12.14;73.58;101377.97;5029552;28;20060;-91
2021/06/02 05:56:28;;;;;;;0.20;0.20;;;;;;;11.96;74.46;101373.88;4990802;28;20494;-87
2021/06/02 05:59:41;;;;;;;0.20;0.20;;;;;;;11.87;75.17;101376.28;5017691;28;20049;-89
2021/06/02 06:02:49;;;;;;;0.20;0.20;;;;;;;11.97;75.60;101382.88;5003645;28;20073;-86
2021/06/02 06:05:36;;;;;;;0.28;0.28;;;;;;;12.21;74.89;101377.72;5036967;28;20061;-89
2021/06/02 06:08:49;;;;;;;0.20;0.20;;;;;;;12.40;75.75;101381.50;5022922;28;20513;-90
2021/06/02 06:12:08;;;;;;;0.20;0.20;;;;;;;12.62;75.06;101379.56;5014687;28;20045;-87
2021/06/02 06:15:14;;;;;;;0.20;0.20;;;;;;;12.49;72.52;101359.91;5022720;28;20906;-88
2021/06/02 06:17:58;;;;;;;0.10;0.10;;;;;;;12.63;73.91;101379.28;5017569;28;20054;-89
2021/06/02 06:20:46;;;;;;;0.30;0.30;;;;;;;12.65;71.23;101373.53;5026921;28;20046;-90
2021/06/02 06:23:56;;;;;;;0.38;0.20;;;;;;;12.32;71.94;101381.22;5032589;28;20399;-89
2021/06/02 06:26:29;;;;;;;0.20;0.20;;;;;;;12.56;73.01;101385.00;5023448;28;20053;-88
2021/06/02 06:29:05;;;;;;;0.30;0.30;;;;;;;13.21;74.37;101376.06;5041794;28;20053;-89
2021/06/02 06:31:41;;;;;;;0.28;0.28;;;;;;;13.02;70.37;101370.44;5018961;28;20056;-89
2021/06/02 06:34:18;;;;;;;0.20;0.20;;;;;;;12.93;71.03;101378.38;5030096;28;20061;-88
2021/06/02 06:36:57;;;;;;;0.30;0.30;;;;;;;13.24;70.46;101375.53;5026652;28;20057;-91
2021/06/02 06:39:44;;;;;;;0.20;0.20;;;;;;;13.25;67.64;101365.41;5019032;28;20049;-87
2021/06/02 06:42:20;;;;;;;0.20;0.20;;;;;;;13.47;67.87;101378.72;5024868;28;20061;-88
2021/06/02 06:44:59;;;;;;;0.40;0.27;;;;;;;13.28;71.30;101375.75;5029330;28;20389;-88
2021/06/02 06:47:27;;;;;;;0.25;0.20;;;;;;;13.63;69.58;101376.72;5019896;28;20042;-86
2021/06/02 06:49:56;;;;;;;0.20;0.20;;;;;;;13.36;68.29;101380.69;5021323;28;20064;-86
2021/06/02 06:52:47;;;;;;;0.20;0.20;;;;;;;13.34;69.74;101387.50;5020961;28;20680;-87
2021/06/02 06:55:22;;;;;;;0.20;0.20;;;;;;;13.39;68.39;101377.38;5028879;28;20061;-89
2021/06/02 06:57:51;;;;;;;0.30;0.28;;;;;;;13.52;66.17;101389.63;5026296;28;20053;-90
2021/06/02 07:00:32;;;;;;;0.20;0.20;;;;;;;13.57;70.44;101380.56;5018136;28;20061;-87
2021/06/02 07:03:08;;;;;;;0.20;0.20;;;;;;;13.55;67.95;101383.59;5014579;28;20065;-87
2021/06/02 07:05:44;;;;;;;0.20;0.20;;;;;;;13.78;70.55;101367.56;5022044;28;20071;-88
2021/06/02 07:08:19;;;;;;;0.20;0.20;;;;;;;13.68;69.69;101376.66;5030219;28;20045;-88
2021/06/02 07:11:03;;;;;;;0.30;0.30;;;;;;;13.75;70.06;101358.03;5029456;28;20049;-88
2021/06/02 07:14:29;;;;;;;0.20;0.20;;;;;;;14.14;70.14;101371.94;5019793;28;20053;-88
2021/06/02 07:20:44;;;;;;;0.30;0.30;;;;;;;14.39;66.89;101368.16;5013529;28;20057;-87
2021/06/02 07:23:19;;;;;;;0.20;0.20;;;;;;;14.52;68.58;101364.72;5009293;28;20053;-90
2021/06/02 07:26:21;;;;;;;0.22;0.20;;;;;;;14.56;68.72;101365.78;5015536;28;20052;-87
2021/06/02 07:28:49;;;;;;;0.20;0.20;;;;;;;14.73;68.60;101359.88;5011027;28;20062;-88
2021/06/02 07:31:22;;;;;;;0.13;0.13;;;;;;;14.76;64.34;101372.19;5013175;28;20061;-89
2021/06/02 07:33:55;;;;;;;0.10;0.10;;;;;;;14.32;63.02;101365.78;5006768;28;20049;-87
2021/06/02 07:36:37;;;;;;;0.20;0.20;;;;;;;14.21;68.37;101361.47;5013539;28;20062;-89
2021/06/02 07:39:17;;;;;;;0.22;0.22;;;;;;;14.11;64.31;101365.13;5003366;28;20061;-90
2021/06/02 07:41:50;;;;;;;0.20;0.20;;;;;;;13.81;65.85;101367.00;5006129;28;20053;-87
2021/06/02 07:44:23;;;;;;;0.30;0.20;;;;;;;13.91;67.26;101349.69;4999424;28;20061;-87
2021/06/02 07:46:58;;;;;;;0.30;0.28;;;;;;;14.23;67.86;101370.22;5010291;28;20050;-89
2021/06/02 07:49:32;;;;;;;0.20;0.20;;;;;;;14.55;65.19;101363.34;5008617;28;20066;-87
2021/06/02 07:52:06;;;;;;;0.22;0.20;;;;;;;14.75;63.33;101354.13;5004985;28;20053;-87
2021/06/02 07:54:48;;;;;;;0.20;0.20;;;;;;;14.94;65.02;101352.25;5004830;28;20041;-86
2021/06/02 07:57:51;;;;;;;0.20;0.20;;;;;;;14.81;60.43;101361.16;5007193;28;20056;-88
2021/06/02 08:00:25;;;;;;;0.30;0.30;;;;;;;14.83;61.00;101356.22;5008881;28;20054;-88
2021/06/02 08:03:01;;;;;;;0.10;0.10;;;;;;;14.86;65.52;101366.59;5006481;28;20426;-88
2021/06/02 08:05:31;;;;;;;0.55;0.20;;;;;;;15.04;65.17;101354.03;5003333;28;20058;-86
2021/06/02 08:07:59;;;;;;;0.20;0.20;;;;;;;15.18;59.84;101353.31;5004493;28;20057;-86
2021/06/02 08:10:28;;;;;;;0.20;0.20;;;;;;;15.21;58.66;101348.06;5001007;28;20057;-86
2021/06/02 08:13:02;;;;;;;0.13;0.10;;;;;;;15.18;62.08;101362.38;5000722;28;21327;-87
2021/06/02 08:15:34;;;;;;;0.20;0.20;;;;;;;15.12;64.27;101347.06;4985039;28;20414;-87
2021/06/02 08:18:07;;;;;;;0.20;0.20;;;;;;;15.34;63.24;101346.50;5009187;28;20049;-88
2021/06/02 08:20:41;;;;;;;0.20;0.20;;;;;;;15.51;59.30;101365.22;5002261;28;20065;-87
2021/06/02 08:23:09;;;;;;;0.20;0.20;;;;;;;15.37;60.32;101339.63;5004230;28;20077;-86
2021/06/02 08:25:43;;;;;;;0.20;0.20;;;;;;;15.71;60.00;101372.31;5002237;28;20065;-87
2021/06/02 08:28:11;;;;;;;0.20;0.20;;;;;;;15.68;62.24;101363.88;5007719;28;21525;-86
2021/06/02 08:30:43;;;;;;;0.15;0.15;;;;;;;15.63;60.36;101362.00;5004425;28;20083;-88
2021/06/02 08:33:11;;;;;;;0.20;0.20;;;;;;;15.65;60.69;101354.31;5004383;28;20068;-87
2021/06/02 08:35:44;;;;;;;0.20;0.20;;;;;;;15.79;58.11;101348.88;5003516;28;20061;-87
2021/06/02 08:38:24;;;;;;;0.20;0.20;;;;;;;16.03;62.51;101345.22;5012856;28;20124;-87
2021/06/02 08:41:02;;;;;;;0.20;0.20;;;;;;;16.11;60.48;101352.78;4999785;28;20478;-87
2021/06/02 08:43:36;;;;;;;0.20;0.20;;;;;;;16.03;60.13;101350.72;5006767;28;20053;-88
2021/06/02 08:46:09;;;;;;;0.20;0.20;;;;;;;16.12;62.10;101344.22;5002689;28;21435;-88
2021/06/02 08:48:45;;;;;;;0.17;0.17;;;;;;;16.25;62.73;101337.13;5001040;28;20665;-87
2021/06/02 08:51:20;;;;;;;0.20;0.20;;;;;;;16.82;62.27;101344.28;5002668;28;20049;-87
2021/06/02 08:53:54;;;;;;;0.20;0.20;;;;;;;16.54;56.27;101343.50;5006191;28;20840;-88
2021/06/02 08:56:29;;;;;;;0.20;0.20;;;;;;;16.37;56.86;101353.13;5006066;28;20042;-87
2021/06/02 08:59:21;;;;;;;0.20;0.20;;;;;;;16.21;58.79;101347.09;5005837;28;20437;-87
2021/06/02 09:01:55;;;;;;;0.15;0.15;;;;;;;16.24;60.56;101343.75;5001885;28;20058;-87
2021/06/02 09:04:29;;;;;;;0.20;0.20;;;;;;;16.20;60.43;101361.13;5001428;28;20057;-86
2021/06/02 09:07:04;;;;;;;0.32;0.20;;;;;;;16.20;60.56;101336.41;5002922;28;20057;-87
2021/06/02 09:09:37;;;;;;;0.43;0.20;;;;;;;16.19;59.66;101345.78;5002469;28;20137;-88
2021/06/02 09:12:14;;;;;;;0.10;0.10;;;;;;;16.42;54.79;101350.31;5013293;28;20057;-86
2021/06/02 09:15:01;;;;;;;0.20;0.20;;;;;;;16.46;55.00;101345.81;4997827;28;20084;-87
2021/06/02 09:18:04;;;;;;;0.20;0.20;;;;;;;16.57;58.60;101346.47;5005395;28;20053;-86
2021/06/02 09:20:51;;;;;;;0.10;0.10;;;;;;;16.66;57.54;101341.84;5004684;28;20491;-87
2021/06/02 09:23:34;;;;;;;0.10;0.10;;;;;;;16.39;55.15;101350.91;5005661;28;20050;-87
2021/06/02 09:26:18;;;;;;;0.20;0.20;;;;;;;16.39;53.85;101350.91;5009305;28;20045;-88
2021/06/02 09:28:57;;;;;;;0.30;0.20;;;;;;;16.20;57.67;101348.22;5009690;28;20062;-86
2021/06/02 09:31:34;;;;;;;0.30;0.20;;;;;;;16.48;56.81;101357.31;5006408;28;20069;-88
2021/06/02 09:34:15;;;;;;;0.20;0.20;;;;;;;16.48;54.85;101349.06;5004328;28;20054;-89
2021/06/02 09:36:47;;;;;;;0.20;0.20;;;;;;;16.96;53.19;101353.41;5012694;28;20057;-90
2021/06/02 09:39:19;;;;;;;0.10;0.10;;;;;;;17.38;56.42;101347.81;5007737;28;20058;-86
2021/06/02 09:41:54;;;;;;;0.20;0.20;;;;;;;17.41;50.81;101347.19;5003100;28;20687;-89
2021/06/02 09:44:25;;;;;;;0.20;0.20;;;;;;;17.04;54.09;101302.38;5006431;28;21371;-87
2021/06/02 09:47:04;;;;;;;0.10;0.10;;;;;;;17.50;53.54;101328.84;5002504;28;20057;-87
2021/06/02 09:49:47;;;;;;;0.10;0.10;;;;;;;17.55;51.59;101340.84;5005406;28;20054;-89
2021/06/02 09:52:37;;;;;;;0.70;0.25;;;;;;;17.48;51.83;101338.50;5012188;28;20061;-88
2021/06/02 09:55:11;;;;;;;0.20;0.20;;;;;;;17.82;54.96;101326.97;5007971;28;20053;-87
2021/06/02 09:57:39;;;;;;;0.20;0.20;;;;;;;17.45;53.97;101322.63;5002649;28;20053;-85
2021/06/02 10:00:15;;;;;;;0.20;0.20;;;;;;;17.65;52.68;101329.59;5005744;28;20061;-88
2021/06/02 10:02:43;;;;;;;0.20;0.20;;;;;;;17.58;50.46;101340.22;5007016;28;20545;-87
2021/06/02 10:05:15;;;;;;;0.10;0.10;;;;;;;17.33;49.19;101331.41;5019599;28;20060;-88
2021/06/02 10:08:01;;;;;;;0.20;0.20;;;;;;;17.66;53.64;101326.53;5002911;28;20053;-89
2021/06/02 10:10:35;;;;;;;0.20;0.20;;;;;;;17.49;49.75;101315.38;5008993;28;20057;-87
2021/06/02 10:13:30;;;;;;;0.68;0.30;;;;;;;17.61;50.04;101314.84;5006358;28;20073;-89
2021/06/02 10:16:54;;;;;;;0.20;0.20;;;;;;;17.50;51.00;101326.06;5027437;28;20047;-86
2021/06/02 10:19:45;;;;;;;0.10;0.10;;;;;;;17.37;49.38;101329.69;5050322;28;20716;-89
2021/06/02 10:22:19;;;;;;;0.20;0.20;;;;;;;17.49;52.11;101326.41;5042281;28;20063;-86
2021/06/02 10:24:54;;;;;;;0.20;0.20;;;;;;;17.57;49.70;101322.09;5044452;28;20998;-86
2021/06/02 10:27:28;;;;;;;0.10;0.10;;;;;;;17.67;54.41;101327.34;5046973;28;20056;-87
2021/06/02 10:29:56;;;;;;;0.20;0.20;;;;;;;17.34;50.07;101330.31;5044612;28;20056;-86
2021/06/02 10:32:35;;;;;;;0.20;0.20;;;;;;;17.58;51.00;101326.44;5047245;28;20048;-89
2021/06/02 10:35:16;;;;;;;0.20;0.20;;;;;;;17.56;51.54;101329.53;5040059;28;20055;-87
2021/06/02 10:37:51;;;;;;;0.10;0.10;;;;;;;17.36;56.84;101339.06;5041110;28;20056;-88
2021/06/02 10:40:21;;;;;;;0.10;0.10;;;;;;;17.24;50.93;101338.81;5047643;28;20549;-89
2021/06/02 10:43:06;;;;;;;0.15;0.15;;;;;;;17.02;54.41;101321.09;5046547;28;20052;-90
2021/06/02 10:45:44;;;;;;;0.10;0.10;;;;;;;16.87;55.80;101322.22;5046688;28;20413;-89
2021/06/02 10:48:16;;;;;;;0.10;0.10;;;;;;;16.99;54.55;101327.22;5049428;28;20048;-89
2021/06/02 10:50:47;;;;;;;0.10;0.10;;;;;;;17.77;50.37;101326.28;5045151;28;20057;-87
2021/06/02 10:53:28;;;;;;;0.55;0.20;;;;;;;17.51;51.03;101324.97;5047307;28;20063;-89
2021/06/02 10:56:20;;;;;;;0.20;0.20;;;;;;;17.38;51.25;101333.25;5044647;28;20468;-88
2021/06/02 10:58:55;;;;;;;0.10;0.10;;;;;;;17.70;50.85;101326.72;5049654;28;20064;-89
2021/06/02 11:01:23;;;;;;;0.10;0.10;;;;;;;17.44;51.67;101330.09;5050085;28;20075;-88
2021/06/02 11:04:12;;;;;;;0.10;0.10;;;;;;;17.37;56.01;101328.88;5042585;28;20052;-87
2021/06/02 11:06:47;;;;;;;0.20;0.20;;;;;;;17.42;52.06;101328.78;5045752;28;20053;-86
2021/06/02 11:09:23;;;;;;;0.10;0.10;;;;;;;17.78;54.02;101339.72;5045454;28;20068;-87
2021/06/02 11:12:04;;;;;;;0.10;0.10;;;;;;;18.10;51.99;101329.59;5040779;28;20059;-86
2021/06/02 11:14:33;;;;;;;0.10;0.10;;;;;;;18.63;53.18;101327.09;5045137;28;20053;-86
2021/06/02 11:17:14;;;;;;;0.13;0.13;;;;;;;19.13;53.74;101320.44;5029444;28;20056;-87
2021/06/02 11:19:52;;;;;;;0.10;0.10;;;;;;;19.18;48.51;101312.00;5051121;28;20056;-88
2021/06/02 11:22:27;;;;;;;0.10;0.10;;;;;;;19.27;48.75;101312.03;5046815;28;20057;-86
2021/06/02 11:25:27;;;;;;;0.20;0.20;;;;;;;19.34;50.11;101295.78;5048709;28;20051;-86
2021/06/02 11:28:00;;;;;;;0.10;0.10;;;;;;;19.30;48.63;101287.34;5049740;28;20048;-86
2021/06/02 11:30:34;;;;;;;0.40;0.20;;;;;;;19.29;51.06;101284.91;5043751;28;20056;-88
2021/06/02 11:33:12;;;;;;;0.10;0.10;;;;;;;19.27;49.83;101273.38;5039049;28;20061;-84
2021/06/02 11:36:11;;;;;;;0.10;0.10;;;;;;;19.41;52.48;101287.03;5040335;28;20049;-88
2021/06/02 11:38:45;;;;;;;0.10;0.10;;;;;;;19.61;52.48;101286.34;5055562;28;20048;-87
2021/06/02 11:41:19;;;;;;;0.20;0.20;;;;;;;19.76;47.96;101287.81;5042626;28;20080;-87
2021/06/02 11:43:47;;;;;;;0.15;0.15;;;;;;;19.61;51.08;101294.66;5043415;28;20397;-86
2021/06/02 11:46:20;;;;;;;0.10;0.10;;;;;;;19.77;49.60;101291.38;5041218;28;20057;-86
2021/06/02 11:48:49;;;;;;;0.20;0.20;;;;;;;19.83;50.17;101277.09;5039286;28;20051;-88
2021/06/02 11:51:49;;;;;;;0.20;0.20;;;;;;;19.94;50.79;101285.84;5039856;28;20684;-88
2021/06/02 11:54:24;;;;;;;0.20;0.20;;;;;;;19.86;50.89;101298.53;5038341;28;20068;-86
2021/06/02 11:56:54;;;;;;;0.20;0.20;;;;;;;19.30;53.43;101276.28;5041065;28;20075;-86
2021/06/02 11:59:41;;;;;;;0.10;0.10;;;;;;;19.31;52.01;101290.94;5041323;28;20045;-85
2021/06/02 12:02:16;;;;;;;0.10;0.10;;;;;;;19.10;53.12;101277.75;5044527;28;20064;-86
2021/06/02 12:04:47;;;;;;;0.20;0.20;;;;;;;18.97;52.20;101276.75;5042090;28;20053;-87
2021/06/02 12:07:22;;;;;;;0.20;0.20;;;;;;;19.07;49.71;101275.66;5042292;28;20064;-89
2021/06/02 12:09:53;;;;;;;0.10;0.10;;;;;;;19.15;49.90;101288.63;5040090;28;20055;-87
2021/06/02 12:12:26;;;;;;;0.17;0.17;;;;;;;19.13;53.24;101277.09;5044755;28;20045;-88
2021/06/02 12:14:59;;;;;;;0.20;0.20;;;;;;;19.48;49.95;101290.09;5024540;28;20053;-88
2021/06/02 12:17:34;;;;;;;0.20;0.20;;;;;;;19.66;51.20;101288.94;5047197;28;21527;-87
2021/06/02 12:20:09;;;;;;;0.28;0.10;;;;;;;19.80;50.68;101285.22;5041712;28;20048;-85
2021/06/02 12:22:42;;;;;;;0.20;0.20;;;;;;;19.40;52.32;101252.28;5044011;28;20053;-88
2021/06/02 12:25:26;;;;;;;0.10;0.10;;;;;;;19.49;49.45;101256.66;5042164;28;20405;-88
2021/06/02 12:28:00;;;;;;;0.10;0.10;;;;;;;19.69;51.76;101276.44;5042226;28;20056;-86
2021/06/02 12:30:37;;;;;;;0.20;0.20;;;;;;;19.56;49.17;101283.75;5044643;28;20059;-88
2021/06/02 12:33:06;;;;;;;0.20;0.20;;;;;;;19.37;51.91;101279.41;5036988;28;20048;-86
2021/06/02 12:35:36;;;;;;;0.20;0.20;;;;;;;19.52;50.09;101280.81;5044625;28;20716;-86
2021/06/02 12:38:13;;;;;;;0.10;0.10;;;;;;;19.68;51.23;101278.38;5035877;28;20094;-88
2021/06/02 12:40:45;;;;;;;0.30;0.28;;;;;;;19.79;52.96;101280.78;5042714;28;20072;-88
2021/06/02 12:43:20;;;;;;;0.20;0.20;;;;;;;20.01;48.81;101272.34;5047590;28;20055;-87
2021/06/02 12:46:07;;;;;;;0.25;0.25;;;;;;;20.25;51.73;101272.91;5041185;28;20370;-88
2021/06/02 12:48:41;;;;;;;0.10;0.10;;;;;;;20.31;48.68;101275.13;5037556;28;20057;-89
2021/06/02 12:51:24;;;;;;;0.38;0.20;;;;;;;20.48;49.67;101268.72;5045198;28;20052;-87
2021/06/02 12:53:52;;;;;;;0.20;0.20;;;;;;;20.81;48.66;101275.56;5043210;28;20052;-87
2021/06/02 12:56:25;;;;;;;0.10;0.10;;;;;;;20.93;49.42;101281.16;5041447;28;20058;-87
2021/06/02 12:58:59;;;;;;;0.55;0.20;;;;;;;20.83;52.64;101262.22;5043375;28;20053;-88
2021/06/02 13:01:38;;;;;;;0.10;0.10;;;;;;;21.13;47.60;101268.50;5040860;28;20049;-88
2021/06/02 13:04:15;;;;;;;0.40;0.10;;;;;;;21.16;49.25;101267.81;5045472;28;20052;-88
2021/06/02 13:06:52;;;;;;;0.10;0.10;;;;;;;21.06;50.52;101262.72;5042426;28;20036;-86
2021/06/02 13:09:25;;;;;;;0.55;0.20;;;;;;;21.15;47.10;101265.41;5044460;28;20087;-87
2021/06/02 13:12:03;;;;;;;0.20;0.20;;;;;;;20.97;52.93;101257.22;5042200;28;20044;-85
2021/06/02 13:14:34;;;;;;;0.20;0.20;;;;;;;21.09;49.19;101255.66;5041815;28;20053;-89
2021/06/02 13:17:14;;;;;;;0.20;0.20;;;;;;;21.15;48.46;101259.88;5018976;28;20041;-88
2021/06/02 13:19:44;;;;;;;0.20;0.20;;;;;;;21.12;49.12;101258.56;5041708;28;20057;-89